F/V Julien Coleou — FHEV — position and weather

sailwx.info

Track history (hours):
 
Tides and Currents Weather Stations Pressure Air Temp Water Temp Dewpoint Dewpoint Depression Visibility Wind Speed Wind Dir Waves Ship Positions

F/V Julien Coleou

Last reported at 2018-Feb-01 12:30 UTC. Time now 2018-Feb-22 03:31 UTC.
Position N 47°44' W 003°22'.
Warning: this ship's position is 20 days out of date.

Length 30 m; draft 4.5 m.

Type: Fishing. MMSI: 226158000.

Date/timePositionNaut miles runAvg speedWind from/ knotsBaromVisibWave heightAir tempDewpointWater temp
2018-Feb-01 12:30N 47°44' W 003°22'0 0.6
2018-Feb-01 12:00N 47°44' W 003°21'2 2.1
2018-Feb-01 11:00N 47°42' W 003°22'2 3.3
2018-Feb-01 10:30N 47°41' W 003°24'2 3.2
2018-Feb-01 10:00N 47°41' W 003°27'2 4.8
2018-Feb-01 09:30N 47°40' W 003°30'2 4.9
2018-Feb-01 09:00N 47°40' W 003°34'2 4.9
2018-Feb-01 08:30N 47°40' W 003°37'53 4.6
2018-Jan-31 20:53N 47°44' W 004°56'2 5.1
2018-Jan-31 20:30N 47°44' W 004°59'279 6.0
2018-Jan-29 21:41N 51°09' W 009°51'2 5.6
2018-Jan-29 21:14N 51°10' W 009°54'1 5.5
2018-Jan-29 21:00N 51°11' W 009°55'3 5.5
2018-Jan-29 20:30N 51°13' W 009°58'3 5.5
2018-Jan-29 20:00N 51°15' W 010°01'6 5.4
2018-Jan-29 18:52N 51°20' W 010°08'2 5.0
2018-Jan-29 18:30N 51°21' W 010°10'3 5.5
2018-Jan-29 18:00N 51°23' W 010°13'3 5.7
2018-Jan-29 17:30N 51°25' W 010°17'3 6.0
2018-Jan-29 17:00N 51°28' W 010°20'3 6.1
2018-Jan-29 16:30N 51°30' W 010°23'5 6.2
2018-Jan-29 15:41N 51°33' W 010°29'40 5.1
2018-Jan-29 07:41N 52°12' W 010°50'77 3.9
2018-Jan-28 11:54N 53°28' W 010°40'11 4.1
2018-Jan-28 09:18N 53°39' W 010°39'2 4.1
2018-Jan-28 08:54N 53°40' W 010°38'2 4.0
2018-Jan-28 08:30N 53°42' W 010°38'2 4.2
2018-Jan-28 08:00N 53°44' W 010°38'2 4.0
2018-Jan-28 07:30N 53°46' W 010°38'2 3.1
2018-Jan-28 06:57N 53°48' W 010°37'1 2.5
2018-Jan-28 06:30N 53°49' W 010°37'1 2.6
2018-Jan-28 05:59N 53°50' W 010°36'1 2.6
2018-Jan-28 05:28N 53°51' W 010°36'1 2.4
2018-Jan-28 05:00N 53°53' W 010°35'6 2.4
2018-Jan-28 02:28N 53°58' W 010°33'4 3.2
2018-Jan-28 01:11N 54°02' W 010°31'2 4.1
2018-Jan-28 00:44N 54°04' W 010°31'1 4.2
2018-Jan-28 00:30N 54°05' W 010°30'2 4.7
2018-Jan-28 00:00N 54°07' W 010°28'3 4.8
2018-Jan-27 23:22N 54°10' W 010°26'2 4.4
2018-Jan-27 22:49N 54°12' W 010°25'2 3.8
2018-Jan-27 22:21N 54°14' W 010°23'1 3.4
2018-Jan-27 21:57N 54°15' W 010°21'2 3.2
2018-Jan-27 21:26N 54°16' W 010°19'1 3.1
2018-Jan-27 21:00N 54°17' W 010°18'1 2.9
2018-Jan-27 20:29N 54°18' W 010°16'2 2.9
2018-Jan-27 19:54N 54°19' W 010°14'1 2.8
2018-Jan-27 19:26N 54°20' W 010°12'1 2.9
2018-Jan-27 18:59N 54°20' W 010°10'2 2.7
2018-Jan-27 18:14N 54°21' W 010°07'1 2.6
2018-Jan-27 17:54N 54°22' W 010°06'1 2.9
2018-Jan-27 17:29N 54°22' W 010°04'2 3.0
2018-Jan-27 16:58N 54°23' W 010°01'2 2.9
2018-Jan-27 16:20N 54°23' W 009°58'1 2.7
2018-Jan-27 16:00N 54°24' W 009°57'2 2.8
2018-Jan-27 15:28N 54°24' W 009°55'1 2.8
2018-Jan-27 14:59N 54°25' W 009°52'2 2.9
2018-Jan-27 14:17N 54°26' W 009°49'1 3.5
2018-Jan-27 13:59N 54°26' W 009°48'3 3.4
2018-Jan-27 13:15N 54°27' W 009°43'31 3.4
2018-Jan-27 04:15N 54°34' W 008°52'2 5.3
2018-Jan-27 03:52N 54°34' W 008°48'2 5.2
2018-Jan-27 03:28N 54°34' W 008°45'2 5.1
2018-Jan-27 03:00N 54°34' W 008°41'3 5.1
2018-Jan-27 02:28N 54°35' W 008°36'2 4.8
2018-Jan-27 02:00N 54°35' W 008°32'2 4.4
2018-Jan-27 01:29N 54°36' W 008°29'1 2.4
2018-Jan-27 00:56N 54°36' W 008°26'0 0.4
2018-Jan-27 00:26N 54°36' W 008°26'0 0.1
2018-Jan-26 23:56N 54°36' W 008°26'1 1.2
2018-Jan-26 23:29N 54°36' W 008°27'0 0.2
2018-Jan-26 22:57N 54°36' W 008°27'1 2.8
2018-Jan-26 22:29N 54°35' W 008°29'1 2.4
2018-Jan-26 21:59N 54°35' W 008°31'2 2.2
2018-Jan-26 21:02N 54°35' W 008°34'0 2.5
2018-Jan-26 21:00N 54°35' W 008°35'2 2.2
2018-Jan-26 19:54N 54°34' W 008°39'75 1.5
2018-Jan-24 17:53N 55°34' W 007°21'411.4
2018-Jan-24 17:30N 55°32' W 007°14'1511.3
2018-Jan-24 16:11N 55°25' W 006°51'311.0
2018-Jan-24 15:52N 55°24' W 006°46'410.6
2018-Jan-24 15:29N 55°22' W 006°39'5 9.9
2018-Jan-24 15:01N 55°20' W 006°32'44 9.0
2018-Jan-24 10:10N 54°51' W 005°34'211.0
2018-Jan-24 10:01N 54°49' W 005°33'611.4
2018-Jan-24 09:30N 54°44' W 005°29'611.6
2018-Jan-24 09:00N 54°39' W 005°26'612.2
2018-Jan-24 08:30N 54°33' W 005°24'612.0
2018-Jan-24 07:58N 54°27' W 005°21'611.5
2018-Jan-24 07:29N 54°21' W 005°21'35311.1
2018-Jan-22 23:47N 48°28' W 005°23'410.3
2018-Jan-22 23:25N 48°25' W 005°19'510.2
2018-Jan-22 22:58N 48°22' W 005°14'510.2
2018-Jan-22 22:30N 48°18' W 005°09'510.4
2018-Jan-22 22:00N 48°15' W 005°03'510.5
2018-Jan-22 21:30N 48°11' W 004°57'510.6
2018-Jan-22 21:01N 48°07' W 004°53'510.6
2018-Jan-22 20:30N 48°03' W 004°48'4 8.0
2018-Jan-22 20:01N 48°00' W 004°43'36 9.8
2018-Jan-22 16:18N 47°45' W 003°54'311.1
2018-Jan-22 16:00N 47°44' W 003°49'510.9
2018-Jan-22 15:30N 47°43' W 003°41'510.7
2018-Jan-22 15:00N 47°42' W 003°34'510.6
2018-Jan-22 14:30N 47°41' W 003°26'4 8.1
2018-Jan-22 14:00N 47°44' W 003°22'0 0.3
2018-Jan-22 13:30N 47°44' W 003°22'0 0.0
2018-Jan-22 13:00N 47°44' W 003°22'0 0.0
2018-Jan-22 12:30N 47°44' W 003°22'  
Track history (hours):
 
Tides and Currents Weather Stations Pressure Air Temp Water Temp Dewpoint Dewpoint Depression Visibility Wind Speed Wind Dir Waves Ship Positions

F/V Julien Coleou

Last reported at 2018-Feb-01 12:30 UTC. Time now 2018-Feb-22 03:31 UTC.
Position N 47°44' W 003°22'.
Warning: this ship's position is 20 days out of date.

Length 30 m; draft 4.5 m.

Type: Fishing. MMSI: 226158000.

Date/timePositionNaut miles runAvg speedWind from/ knotsBaromVisibWave heightAir tempDewpointWater temp
2018-Feb-01 12:30N 47°44' W 003°22'0 0.6
2018-Feb-01 12:00N 47°44' W 003°21'2 2.1
2018-Feb-01 11:00N 47°42' W 003°22'2 3.3
2018-Feb-01 10:30N 47°41' W 003°24'2 3.2
2018-Feb-01 10:00N 47°41' W 003°27'2 4.8
2018-Feb-01 09:30N 47°40' W 003°30'2 4.9
2018-Feb-01 09:00N 47°40' W 003°34'2 4.9
2018-Feb-01 08:30N 47°40' W 003°37'53 4.6
2018-Jan-31 20:53N 47°44' W 004°56'2 5.1
2018-Jan-31 20:30N 47°44' W 004°59'279 6.0
2018-Jan-29 21:41N 51°09' W 009°51'2 5.6
2018-Jan-29 21:14N 51°10' W 009°54'1 5.5
2018-Jan-29 21:00N 51°11' W 009°55'3 5.5
2018-Jan-29 20:30N 51°13' W 009°58'3 5.5
2018-Jan-29 20:00N 51°15' W 010°01'6 5.4
2018-Jan-29 18:52N 51°20' W 010°08'2 5.0
2018-Jan-29 18:30N 51°21' W 010°10'3 5.5
2018-Jan-29 18:00N 51°23' W 010°13'3 5.7
2018-Jan-29 17:30N 51°25' W 010°17'3 6.0
2018-Jan-29 17:00N 51°28' W 010°20'3 6.1
2018-Jan-29 16:30N 51°30' W 010°23'5 6.2
2018-Jan-29 15:41N 51°33' W 010°29'40 5.1
2018-Jan-29 07:41N 52°12' W 010°50'77 3.9
2018-Jan-28 11:54N 53°28' W 010°40'11 4.1
2018-Jan-28 09:18N 53°39' W 010°39'2 4.1
2018-Jan-28 08:54N 53°40' W 010°38'2 4.0
2018-Jan-28 08:30N 53°42' W 010°38'2 4.2
2018-Jan-28 08:00N 53°44' W 010°38'2 4.0
2018-Jan-28 07:30N 53°46' W 010°38'2 3.1
2018-Jan-28 06:57N 53°48' W 010°37'1 2.5
2018-Jan-28 06:30N 53°49' W 010°37'1 2.6
2018-Jan-28 05:59N 53°50' W 010°36'1 2.6
2018-Jan-28 05:28N 53°51' W 010°36'1 2.4
2018-Jan-28 05:00N 53°53' W 010°35'6 2.4
2018-Jan-28 02:28N 53°58' W 010°33'4 3.2
2018-Jan-28 01:11N 54°02' W 010°31'2 4.1
2018-Jan-28 00:44N 54°04' W 010°31'1 4.2
2018-Jan-28 00:30N 54°05' W 010°30'2 4.7
2018-Jan-28 00:00N 54°07' W 010°28'3 4.8
2018-Jan-27 23:22N 54°10' W 010°26'2 4.4
2018-Jan-27 22:49N 54°12' W 010°25'2 3.8
2018-Jan-27 22:21N 54°14' W 010°23'1 3.4
2018-Jan-27 21:57N 54°15' W 010°21'2 3.2
2018-Jan-27 21:26N 54°16' W 010°19'1 3.1
2018-Jan-27 21:00N 54°17' W 010°18'1 2.9
2018-Jan-27 20:29N 54°18' W 010°16'2 2.9
2018-Jan-27 19:54N 54°19' W 010°14'1 2.8
2018-Jan-27 19:26N 54°20' W 010°12'1 2.9
2018-Jan-27 18:59N 54°20' W 010°10'2 2.7
2018-Jan-27 18:14N 54°21' W 010°07'1 2.6
2018-Jan-27 17:54N 54°22' W 010°06'1 2.9
2018-Jan-27 17:29N 54°22' W 010°04'2 3.0
2018-Jan-27 16:58N 54°23' W 010°01'2 2.9
2018-Jan-27 16:20N 54°23' W 009°58'1 2.7
2018-Jan-27 16:00N 54°24' W 009°57'2 2.8
2018-Jan-27 15:28N 54°24' W 009°55'1 2.8
2018-Jan-27 14:59N 54°25' W 009°52'2 2.9
2018-Jan-27 14:17N 54°26' W 009°49'1 3.5
2018-Jan-27 13:59N 54°26' W 009°48'3 3.4
2018-Jan-27 13:15N 54°27' W 009°43'31 3.4
2018-Jan-27 04:15N 54°34' W 008°52'2 5.3
2018-Jan-27 03:52N 54°34' W 008°48'2 5.2
2018-Jan-27 03:28N 54°34' W 008°45'2 5.1
2018-Jan-27 03:00N 54°34' W 008°41'3 5.1
2018-Jan-27 02:28N 54°35' W 008°36'2 4.8
2018-Jan-27 02:00N 54°35' W 008°32'2 4.4
2018-Jan-27 01:29N 54°36' W 008°29'1 2.4
2018-Jan-27 00:56N 54°36' W 008°26'0 0.4
2018-Jan-27 00:26N 54°36' W 008°26'0 0.1
2018-Jan-26 23:56N 54°36' W 008°26'1 1.2
2018-Jan-26 23:29N 54°36' W 008°27'0 0.2
2018-Jan-26 22:57N 54°36' W 008°27'1 2.8
2018-Jan-26 22:29N 54°35' W 008°29'1 2.4
2018-Jan-26 21:59N 54°35' W 008°31'2 2.2
2018-Jan-26 21:02N 54°35' W 008°34'0 2.5
2018-Jan-26 21:00N 54°35' W 008°35'2 2.2
2018-Jan-26 19:54N 54°34' W 008°39'75 1.5
2018-Jan-24 17:53N 55°34' W 007°21'411.4
2018-Jan-24 17:30N 55°32' W 007°14'1511.3
2018-Jan-24 16:11N 55°25' W 006°51'311.0
2018-Jan-24 15:52N 55°24' W 006°46'410.6
2018-Jan-24 15:29N 55°22' W 006°39'5 9.9
2018-Jan-24 15:01N 55°20' W 006°32'44 9.0
2018-Jan-24 10:10N 54°51' W 005°34'211.0
2018-Jan-24 10:01N 54°49' W 005°33'611.4
2018-Jan-24 09:30N 54°44' W 005°29'611.6
2018-Jan-24 09:00N 54°39' W 005°26'612.2
2018-Jan-24 08:30N 54°33' W 005°24'612.0
2018-Jan-24 07:58N 54°27' W 005°21'611.5
2018-Jan-24 07:29N 54°21' W 005°21'35311.1
2018-Jan-22 23:47N 48°28' W 005°23'410.3
2018-Jan-22 23:25N 48°25' W 005°19'510.2
2018-Jan-22 22:58N 48°22' W 005°14'510.2
2018-Jan-22 22:30N 48°18' W 005°09'510.4
2018-Jan-22 22:00N 48°15' W 005°03'510.5
2018-Jan-22 21:30N 48°11' W 004°57'510.6
2018-Jan-22 21:01N 48°07' W 004°53'510.6
2018-Jan-22 20:30N 48°03' W 004°48'4 8.0
2018-Jan-22 20:01N 48°00' W 004°43'36 9.8
2018-Jan-22 16:18N 47°45' W 003°54'311.1
2018-Jan-22 16:00N 47°44' W 003°49'510.9
2018-Jan-22 15:30N 47°43' W 003°41'510.7
2018-Jan-22 15:00N 47°42' W 003°34'510.6
2018-Jan-22 14:30N 47°41' W 003°26'4 8.1
2018-Jan-22 14:00N 47°44' W 003°22'0 0.3
2018-Jan-22 13:30N 47°44' W 003°22'0 0.0
2018-Jan-22 13:00N 47°44' W 003°22'0 0.0
2018-Jan-22 12:30N 47°44' W 003°22'  

Dump ship's entire track history